This is the latest recevied weather packets stored in our database for station/object OK2JF-6. If no packets are shown the sender has not sent any weather packets the latest 10 day(s).
| Time | Temp. | Humidity | Pressure | Rain* | Wind** | Luminosity | Snow |
|---|---|---|---|---|---|---|---|
| 1778142603 | 17.78° C | 59% | 1083 hPa | 0 mm | - | 509 W/m² | - |
| 1778142183 | 16.67° C | 63% | 1083.1 hPa | 0 mm | - | 477 W/m² | - |
| 1778141943 | 16.67° C | 62% | 1083.2 hPa | 0 mm | - | 142 W/m² | - |
| 1778141838 | 16.67° C | 62% | 1083 hPa | 0 mm | - | 343 W/m² | - |
| 1778141478 | 16.11° C | 64% | 1083 hPa | 0 mm | - | 228 W/m² | - |
| 1778141163 | 15.56° C | 65% | 1083.2 hPa | 0 mm | - | 132 W/m² | - |
| 1778140803 | 15.56° C | 65% | 1082.8 hPa | 0 mm | - | 180 W/m² | - |
| 1778140563 | 15.56° C | 64% | 1082.8 hPa | 0 mm | - | 131 W/m² | - |
| 1778140263 | 16.67° C | 63% | 1082.8 hPa | 0 mm | - | 107 W/m² | - |
| 1778140203 | 16.67° C | 63% | 1082.7 hPa | 0 mm | - | 122 W/m² | - |
| 1778140083 | 16.67° C | 61% | 1082.7 hPa | 0 mm | - | 107 W/m² | - |
| 1778139783 | 17.22° C | 62% | 1082.7 hPa | 0 mm | - | 276 W/m² | - |
| 1778139618 | 16.67° C | 63% | 1082.7 hPa | 0 mm | - | 257 W/m² | - |
| 1778139376 | 17.22° C | 61% | 1082.8 hPa | 0 mm | - | 226 W/m² | - |
| 1778138643 | 16.67° C | 64% | 1082.7 hPa | 0 mm | - | 391 W/m² | - |
| 1778138583 | 16.67° C | 64% | 1082.7 hPa | 0 mm | - | 204 W/m² | - |
| 1778138463 | 16.67° C | 65% | 1082.7 hPa | 0 mm | - | 248 W/m² | - |
| 1778138223 | 16.11° C | 67% | 1082.6 hPa | 0 mm | - | 232 W/m² | - |
| 1778137863 | 15.56° C | 68% | 1082.4 hPa | 0 mm | - | 137 W/m² | - |
| 1778137443 | 15.56° C | 68% | 1082.2 hPa | 0 mm | - | 153 W/m² | - |
| 1778137218 | 15.56° C | 69% | 1082.3 hPa | 0 mm | - | 401 W/m² | - |
| 1778137203 | 15.56° C | 69% | 1082.3 hPa | 0 mm | - | 218 W/m² | - |
| 1778136903 | 14.44° C | 72% | 1082.3 hPa | 0 mm | - | 232 W/m² | - |
| 1778136843 | 14.44° C | 72% | 1082.3 hPa | 0 mm | - | 177 W/m² | - |
| 1778136783 | 14.44° C | 72% | 1082.3 hPa | 0 mm | - | 169 W/m² | - |
* Rain latest hour (hover to see other rain measurements)
** Current wind speed in m/s (hover to see current wind gust speed)